Latest Weather Observations for Bellambi

IDN60801

Issued at 9:05 pm EST Thursday 31 July 2014 (issued every 30 minutes, with the page automatically refreshed every 10 minutes)

About weather observations | Map of weather stations | Latest weather observations for NSW | Other Formats
Station Details ID: 068228 Name: BELLAMBI AWS Lat: -34.37 Lon: 150.93 Height: 10.0 m
Data from the previous 72 hours. | See also: Recent months at Bellambi
Date/Time
EST
Temp
°C
App
Temp
°C
Dew
Point
Rel
Hum
%
Delta-T
°C
Wind Press
QNH
hPa
Press
MSL
hPa
Rain
since 9 am
mm
Dir
 
Spd
km/h
Gust
km/h
Spd
kts
Gust
kts
31/09:00pm 19.6 10.5 1.6 30 8.2 N 39 61 21 33 - - 0.0
31/08:30pm 19.8 12.3 1.3 29 8.4 N 30 43 16 23 - - 0.0
31/08:10pm 20.2 13.0 0.6 27 8.8 N 28 48 15 26 - - 0.0
31/08:00pm 20.2 13.4 0.6 27 8.8 N 26 43 14 23 - - 0.0
31/07:30pm 20.8 13.7 -1.1 23 9.5 N 26 59 14 32 - - 0.0
31/07:14pm 20.8 13.3 -1.1 23 9.5 N 28 52 15 28 - - 0.0
31/07:00pm 21.0 13.7 0.2 25 9.3 N 28 43 15 23 - - 0.0
31/06:46pm 21.1 13.7 -0.8 23 9.6 N 28 46 15 25 - - 0.0
31/06:30pm 21.0 13.3 -0.3 24 9.4 N 30 41 16 22 - - 0.0
31/06:00pm 21.4 13.9 1.1 26 9.3 N 30 44 16 24 - - 0.0
31/05:30pm 21.9 14.4 1.5 26 9.4 N 30 43 16 23 - - 0.0
31/05:01pm 22.0 13.8 0.5 24 9.7 N 33 52 18 28 - - 0.0
31/05:00pm 22.2 13.8 1.3 25 9.6 N 35 52 19 28 - - 0.0
31/04:30pm 23.1 13.6 -1.1 20 10.7 NNW 39 65 21 35 - - 0.0
31/04:04pm 23.0 13.4 1.4 24 10.0 NNW 41 59 22 32 - - 0.0
31/04:00pm 23.4 13.1 -0.8 20 10.8 NNW 43 59 23 32 - - 0.0
31/03:30pm 23.6 14.4 1.3 23 10.4 NNW 39 63 21 34 - - 0.0
31/03:19pm 23.7 15.0 2.0 24 10.3 N 37 56 20 30 - - 0.0
31/03:00pm 23.8 13.9 1.4 23 10.5 N 43 59 23 32 - - 0.0
31/02:30pm 23.5 14.6 2.9 26 9.9 N 39 57 21 31 - - 0.0
31/02:04pm 23.8 14.2 1.4 23 10.5 NNW 41 65 22 35 - - 0.0
31/02:00pm 24.0 14.9 1.6 23 10.5 NNW 39 56 21 30 - - 0.0
31/01:31pm 24.0 16.1 2.2 24 10.4 NNW 33 52 18 28 - - 0.0
31/01:30pm 23.9 15.5 1.5 23 10.5 NNW 35 52 19 28 - - 0.0
31/01:00pm 23.9 16.5 2.1 24 10.3 NNW 30 48 16 26 - - 0.0
31/12:51pm 23.9 17.1 3.2 26 10.0 NNW 28 46 15 25 - - 0.0
31/12:30pm 23.9 17.1 0.9 22 10.7 NNW 26 41 14 22 - - 0.0
31/12:09pm 23.6 16.5 1.3 23 10.4 NNW 28 48 15 26 - - 0.0
31/12:00pm 23.4 17.8 1.1 23 10.3 NW 20 26 11 14 - - 0.0
31/11:30am 22.4 16.4 3.5 29 9.1 N 24 32 13 17 - - 0.0
31/11:00am 21.0 15.0 3.2 31 8.4 N 24 37 13 20 - - 0.0
31/10:30am 20.5 14.9 3.7 33 8.0 N 22 33 12 18 - - 0.0
31/10:00am 19.7 13.9 4.6 37 7.3 N 24 39 13 21 - - 0.0
31/09:30am 18.6 13.8 5.8 43 6.3 N 20 30 11 16 - - 0.0
31/09:00am 17.5 12.4 5.8 46 5.7 N 22 28 12 15 - - 0.0
31/08:30am 17.3 13.1 5.9 47 5.6 N 17 22 9 12 - - 0.0
31/08:00am 16.1 12.0 6.0 51 4.9 NNE 17 22 9 12 - - 0.0
31/07:30am 15.6 10.0 7.1 57 4.2 NNE 26 35 14 19 - - 0.0
31/07:00am 14.4 10.0 7.5 63 3.4 N 20 33 11 18 - - 0.0
31/06:30am 15.0 11.5 8.7 66 3.2 N 17 32 9 17 - - 0.0
31/06:00am 14.6 12.1 8.3 66 3.2 NE 11 24 6 13 - - 0.0
31/05:30am 14.8 12.3 6.6 58 4.0 NW 9 17 5 9 - - 0.0
31/05:00am 15.3 11.4 8.8 65 3.3 NE 19 28 10 15 - - 0.0
31/04:30am 15.4 11.8 8.2 62 3.6 N 17 24 9 13 - - 0.0
31/04:00am 15.1 11.2 8.6 65 3.3 NNE 19 26 10 14 - - 0.0
31/03:30am 15.4 11.4 8.4 63 3.5 NNE 19 24 10 13 - - 0.0
31/03:00am 15.2 11.6 8.2 63 3.5 NNE 17 22 9 12 - - 0.0
31/02:30am 15.6 12.3 8.1 61 3.8 N 15 22 8 12 - - 0.0
31/02:00am 15.7 11.4 8.0 60 3.9 N 20 28 11 15 - - 0.0
31/01:30am 16.1 12.2 8.8 62 3.7 N 19 26 10 14 - - 0.0
31/01:00am 16.3 12.1 8.3 59 4.1 N 20 28 11 15 - - 0.0
31/12:30am 15.3 11.6 7.8 61 3.7 N 17 20 9 11 - - 0.0
31/12:00am 15.4 12.1 8.2 62 3.6 NNW 15 20 8 11 - - 0.0
 
Date/Time
EST
Temp
°C
App
Temp
°C
Dew
Point
Rel
Hum
%
Delta-T
°C
Wind Press
QNH
hPa
Press
MSL
hPa
Rain
since 9 am
mm
Dir
 
Spd
km/h
Gust
km/h
Spd
kts
Gust
kts
30/11:30pm 15.2 11.4 7.7 61 3.7 NNW 17 20 9 11 - - 0.0
30/11:00pm 14.8 11.8 7.6 62 3.6 NNW 13 17 7 9 - - 0.0
30/10:30pm 16.0 13.2 8.7 62 3.7 NNW 13 19 7 10 - - 0.0
30/10:00pm 15.0 11.7 8.0 63 3.5 NNW 15 19 8 10 - - 0.0
30/09:30pm 16.3 12.6 7.8 57 4.3 NNW 17 22 9 12 - - 0.0
30/09:00pm 15.6 12.6 7.9 60 3.9 NNW 13 17 7 9 - - 0.0
30/08:30pm 17.7 13.8 6.9 49 5.4 NNW 17 33 9 18 - - 0.0
30/08:00pm 18.2 14.0 7.3 49 5.5 NNW 19 32 10 17 - - 0.0
30/07:30pm 16.7 14.0 7.4 54 4.6 NW 11 15 6 8 - - 0.0
30/07:00pm 17.8 15.1 5.7 45 5.9 NW 9 13 5 7 - - 0.0
30/06:30pm 18.8 15.0 6.0 43 6.3 WNW 15 24 8 13 - - 0.0
30/06:00pm 18.6 14.9 6.4 45 6.1 NW 15 22 8 12 - - 0.0
30/05:30pm 19.2 16.6 6.0 42 6.5 W 9 19 5 10 - - 0.0
30/05:00pm 19.8 15.6 5.5 39 7.0 WNW 17 30 9 16 - - 0.0
30/04:30pm 20.6 16.0 5.8 38 7.4 WNW 19 30 10 16 - - 0.0
30/04:00pm 21.5 16.7 5.8 36 7.9 NW 20 43 11 23 - - 0.0
30/03:30pm 21.7 15.8 6.0 36 7.9 NW 26 41 14 22 - - 0.0
30/03:00pm 22.2 17.6 5.6 34 8.3 WNW 19 35 10 19 - - 0.0
30/02:30pm 22.1 17.3 5.5 34 8.3 WSW 20 35 11 19 - - 0.0
30/02:00pm 22.1 16.4 5.1 33 8.4 W 24 39 13 21 - - 0.0
30/01:30pm 22.1 17.2 5.1 33 8.4 W 20 43 11 23 - - 0.0
30/01:08pm 22.0 15.6 5.4 34 8.3 WNW 28 46 15 25 - - 0.0
30/01:00pm 22.1 17.6 5.9 35 8.2 W 19 35 10 19 - - 0.0
30/12:30pm 22.0 17.2 5.8 35 8.1 W 20 32 11 17 - - 0.0
30/12:00pm 21.7 17.1 5.6 35 8.0 W 19 33 10 18 - - 0.0
30/11:30am 21.5 17.0 7.0 39 7.4 W 20 32 11 17 - - 0.0
30/11:00am 20.7 14.9 6.3 39 7.2 W 26 39 14 21 - - 0.0
30/10:30am 20.5 14.7 6.4 40 7.1 WNW 26 39 14 21 - - 0.0
30/10:00am 20.0 15.7 7.1 43 6.6 NW 19 28 10 15 - - 0.0
30/09:30am 19.5 17.4 6.6 43 6.5 NW 7 19 4 10 - - 0.0
30/09:00am 19.1 16.4 7.5 47 5.9 NW 11 19 6 10 - - -
30/08:30am 18.3 15.8 6.5 46 5.9 W 9 24 5 13 - - -
30/08:00am 17.8 14.0 6.0 46 5.8 WSW 15 30 8 16 - - -
30/07:30am 17.7 13.5 5.9 46 5.8 SE 17 24 9 13 - - -
30/07:00am 17.0 12.6 6.5 50 5.2 ESE 19 30 10 16 - - -
30/06:30am 16.9 12.8 6.1 49 5.3 ENE 17 24 9 13 - - -
30/06:00am 17.2 11.6 5.5 46 5.6 N 24 48 13 26 - - -
30/05:30am 17.2 10.5 5.5 46 5.6 W 30 54 16 29 - - -
30/05:27am 17.0 11.8 5.3 46 5.6 SW 22 37 12 20 - - -
30/05:00am 17.3 7.4 4.9 44 5.9 W 46 83 25 45 - - -
30/04:45am 17.5 7.2 4.8 43 6.1 WNW 48 96 26 52 - - -
30/04:30am 17.3 7.4 4.6 43 6.0 WNW 46 69 25 37 - - -
30/04:00am 17.6 6.3 3.5 39 6.6 WNW 52 82 28 44 - - -
30/03:30am 17.8 7.5 2.9 37 6.9 WNW 46 80 25 43 - - -
30/03:24am 17.8 8.9 2.9 37 6.9 WNW 39 67 21 36 - - -
30/03:00am 17.9 10.6 2.2 35 7.1 W 30 48 16 26 - - 0.0
30/02:30am 17.5 12.5 1.5 34 7.1 W 17 32 9 17 - - -
30/02:00am 17.1 13.1 2.7 38 6.6 W 13 22 7 12 - - -
30/01:30am 14.1 11.4 3.6 49 4.8 NW 7 11 4 6 - - -
30/01:00am 13.6 10.8 5.0 56 4.0 NNW 9 17 5 9 - - -
30/12:30am 13.2 10.3 4.6 56 3.9 NNW 9 15 5 8 - - -
30/12:00am 12.8 10.1 5.5 61 3.4 NNW 9 13 5 7 - - -
 
Date/Time
EST
Temp
°C
App
Temp
°C
Dew
Point
Rel
Hum
%
Delta-T
°C
Wind Press
QNH
hPa
Press
MSL
hPa
Rain
since 9 am
mm
Dir
 
Spd
km/h
Gust
km/h
Spd
kts
Gust
kts
29/11:30pm 13.0 10.2 3.1 51 4.4 NW 7 11 4 6 - - -
29/11:00pm 13.5 10.5 4.1 53 4.3 NNW 9 13 5 7 - - -
29/10:30pm 14.1 10.9 3.0 47 5.0 NW 9 13 5 7 - - -
29/10:00pm 16.3 13.0 6.4 52 4.8 N 13 17 7 9 - - -
29/09:30pm 15.2 11.9 4.6 49 4.9 NNW 11 17 6 9 - - -
29/09:00pm 15.9 12.5 4.0 45 5.5 NNW 11 13 6 7 - - 0.0
29/08:30pm 17.7 13.4 3.2 38 6.7 N 15 19 8 10 - - -
29/08:00pm 17.9 14.2 4.5 41 6.4 N 13 20 7 11 - - -
29/07:30pm 18.0 13.5 1.9 34 7.3 NNW 15 22 8 12 - - -
29/07:00pm 18.2 13.6 1.3 32 7.5 NW 15 20 8 11 - - -
29/06:30pm 18.2 14.4 1.7 33 7.4 NW 11 20 6 11 - - -
29/06:00pm 19.4 14.2 -0.1 27 8.5 WNW 17 26 9 14 - - -
29/05:30pm 19.3 15.7 0.4 28 8.4 NW 9 13 5 7 - - -
29/05:00pm 20.5 15.7 0.4 26 9.0 NW 15 24 8 13 - - -
29/04:30pm 22.1 17.6 0.0 23 9.9 WNW 13 20 7 11 - - -
29/04:00pm 22.7 17.8 -0.7 21 10.4 W 15 22 8 12 - - -
29/03:30pm 23.2 18.5 0.9 23 10.3 WNW 15 26 8 14 - - -
29/03:00pm 23.1 17.5 0.2 22 10.4 W 19 28 10 15 - - -
29/02:30pm 23.0 17.2 0.2 22 10.4 NW 20 33 11 18 - - -
29/02:00pm 20.0 14.9 9.3 50 5.7 NNE 26 32 14 17 - - -
29/01:30pm 20.4 16.2 7.4 43 6.7 NNE 19 28 10 15 - - -
29/01:00pm 19.6 14.6 8.0 47 6.0 NE 24 30 13 16 - - -
29/12:30pm 19.4 15.3 6.2 42 6.6 NE 17 24 9 13 - - -
29/12:00pm 18.6 13.7 5.1 41 6.5 NNE 20 26 11 14 - - -
29/11:00am 17.8 12.3 5.7 45 5.9 NNE 24 32 13 17 - - 0.0
29/10:30am 17.2 11.6 5.2 45 5.8 N 24 35 13 19 - - 0.0
29/10:00am 16.4 11.3 4.1 44 5.7 N 20 28 11 15 - - 0.0
29/09:30am 16.5 11.7 4.5 45 5.6 N 19 24 10 13 - - 0.0
29/09:00am 16.0 11.0 3.4 43 5.8 N 19 24 10 13 - - 0.0
29/08:30am 15.5 10.1 4.5 48 5.1 NNW 22 30 12 16 - - 0.0
29/08:00am 15.6 8.7 2.7 42 5.8 NNW 28 33 15 18 - - 0.0
29/07:30am 16.4 9.0 2.1 38 6.4 NW 30 37 16 20 - - 0.0
29/07:00am 16.0 7.9 1.0 36 6.5 WNW 33 43 18 23 - - 0.0
29/06:30am 15.2 7.5 2.1 41 5.8 WNW 32 43 17 23 - - 0.0
29/06:00am 14.4 8.7 2.9 46 5.1 WNW 22 30 12 16 - - 0.0
29/05:30am 13.4 8.4 3.8 52 4.3 WNW 19 35 10 19 - - 0.0
29/05:00am 13.6 9.6 5.0 56 4.0 NW 15 20 8 11 - - 0.0
29/04:30am 12.8 9.1 4.3 56 3.9 NW 13 19 7 10 - - 0.0
29/04:00am 13.5 10.8 3.6 51 4.5 W 7 11 4 6 - - 0.0
29/03:30am 13.9 11.4 4.5 53 4.3 NW 7 17 4 9 - - 0.0
29/03:00am 14.3 11.5 5.1 54 4.3 N 9 13 5 7 - - 0.0
29/02:30am 13.8 11.1 3.6 50 4.6 SW 7 11 4 6 - - 0.0
29/02:00am 14.8 12.4 4.5 50 4.8 NNE 6 11 3 6 - - 0.0
29/01:30am 15.0 11.5 7.3 60 3.8 NNE 15 17 8 9 - - 0.0
29/01:00am 15.9 12.2 4.6 47 5.3 NNW 13 20 7 11 - - 0.0
29/12:30am 15.7 12.3 5.9 52 4.7 E 13 17 7 9 - - 0.0
29/12:00am 15.6 13.1 4.6 48 5.1 ENE 7 13 4 7 - - 0.0
 
Date/Time
EST
Temp
°C
App
Temp
°C
Dew
Point
Rel
Hum
%
Delta-T
°C
Wind Press
QNH
hPa
Press
MSL
hPa
Rain
since 9 am
mm
Dir
 
Spd
km/h
Gust
km/h
Spd
kts
Gust
kts
28/11:30pm 15.8 12.1 4.5 47 5.3 NE 13 22 7 12 - - 0.0
28/11:00pm 15.3 12.4 4.9 50 4.9 NE 9 13 5 7 - - 0.0
28/10:30pm 15.3 12.8 4.7 49 5.0 N 7 15 4 8 - - 0.0
28/10:00pm 15.4 12.5 4.8 49 5.0 NNW 9 19 5 10 - - 0.0
28/09:30pm 15.4 12.0 4.2 47 5.2 WNW 11 22 6 12 - - 0.0

Other Formats:

Comma delimited format used in spreadsheet applications
http://www.bom.gov.au/fwo/IDN60801/IDN60801.94749.axf

JavaScript Object Notation format (JSON) in row-major order
http://www.bom.gov.au/fwo/IDN60801/IDN60801.94749.json